createdAt,value
2023-03-03T12:47:55.487Z,15.56
2023-03-03T12:48:55.079Z,15.77
2023-03-03T12:50:06.646Z,15.97
2023-03-03T12:50:55.065Z,15.94
2023-03-03T12:51:55.109Z,15.80
2023-03-03T12:53:01.851Z,15.49
2023-03-03T12:54:01.283Z,14.30
2023-03-03T12:54:55.411Z,13.96
2023-03-03T12:55:55.269Z,14.17
2023-03-03T12:57:00.858Z,14.42
2023-03-03T12:57:55.232Z,14.52
2023-03-03T12:58:55.302Z,14.23
2023-03-03T12:59:55.236Z,14.04
2023-03-03T13:00:57.309Z,14.14
2023-03-03T13:01:55.213Z,14.15
2023-03-03T13:02:55.243Z,14.26
2023-03-03T13:03:58.421Z,13.92
2023-03-03T13:04:55.231Z,13.77
2023-03-03T13:05:58.189Z,13.74
2023-03-03T13:06:55.405Z,14.04
2023-03-03T13:07:55.281Z,13.92
2023-03-03T13:08:55.308Z,13.49
2023-03-03T13:09:55.234Z,13.08
2023-03-03T13:10:55.302Z,13.05
2023-03-03T13:11:55.248Z,13.08
2023-03-03T13:12:55.265Z,13.04
2023-03-03T13:13:55.292Z,13.06
2023-03-03T13:14:55.353Z,13.08
2023-03-03T13:15:56.478Z,13.04
2023-03-03T13:16:55.299Z,13.04
2023-03-03T13:17:55.252Z,13.02
2023-03-03T13:18:55.241Z,12.94
2023-03-03T13:19:55.293Z,12.87
2023-03-03T13:20:55.237Z,12.78
2023-03-03T13:21:55.747Z,12.80
2023-03-03T13:22:55.310Z,12.83
2023-03-03T13:23:55.268Z,12.85
2023-03-03T13:24:55.349Z,12.80
2023-03-03T13:25:55.380Z,12.76
2023-03-03T13:26:57.945Z,12.73
2023-03-03T13:27:55.343Z,12.72
2023-03-03T13:28:55.266Z,12.74
2023-03-03T13:29:55.266Z,12.73
2023-03-03T13:30:57.363Z,12.61
2023-03-03T13:31:55.773Z,12.52
2023-03-03T13:32:55.294Z,12.48
2023-03-03T13:33:55.371Z,12.45
2023-03-03T13:34:55.314Z,12.42
2023-03-03T13:36:00.700Z,12.34
2023-03-03T13:36:58.835Z,12.29
2023-03-03T13:37:58.075Z,12.27
2023-03-03T13:38:57.605Z,12.24
2023-03-03T13:39:58.397Z,12.21
2023-03-03T13:40:55.383Z,12.14
2023-03-03T13:42:01.428Z,12.24
2023-03-03T13:42:55.319Z,12.25
2023-03-03T13:44:02.826Z,12.08
2023-03-03T13:44:55.470Z,12.02
2023-03-03T13:45:55.403Z,12.10
2023-03-03T13:46:55.527Z,12.10
2023-03-03T13:47:55.494Z,12.11
2023-03-03T13:48:55.713Z,12.02
2023-03-03T13:49:58.516Z,12.06
2023-03-03T13:50:55.579Z,12.02
2023-03-03T13:51:55.675Z,11.99
2023-03-03T13:52:55.727Z,12.10
2023-03-03T13:53:55.566Z,11.93
2023-03-03T13:54:55.587Z,11.96
2023-03-03T13:55:55.710Z,11.97
2023-03-03T13:56:55.718Z,11.98
2023-03-03T13:57:55.678Z,11.99
2023-03-03T13:58:59.978Z,11.97
2023-03-03T13:59:57.824Z,11.97
2023-03-03T14:00:55.854Z,12.00
2023-03-03T14:01:55.572Z,11.97
2023-03-03T14:02:55.698Z,11.97
2023-03-03T14:03:55.709Z,11.98
2023-03-03T14:04:55.675Z,11.89
2023-03-03T14:05:55.620Z,11.83
2023-03-03T14:06:55.683Z,11.87
2023-03-03T14:07:55.656Z,11.88
2023-03-03T14:08:55.684Z,11.86
2023-03-03T14:09:55.738Z,11.85
2023-03-03T14:10:55.716Z,11.80
2023-03-03T14:11:58.836Z,11.78
2023-03-03T14:12:58.744Z,11.81
2023-03-03T14:13:55.853Z,11.69
2023-03-03T14:14:55.910Z,11.72
2023-03-03T14:15:57.110Z,11.69
2023-03-03T14:16:56.308Z,11.62
2023-03-03T14:17:56.041Z,11.56
2023-03-03T14:18:55.791Z,11.48
2023-03-03T14:19:55.782Z,11.48
2023-03-03T14:20:55.822Z,11.43
2023-03-03T14:21:55.796Z,11.38
2023-03-03T14:22:55.821Z,11.30
2023-03-03T14:23:55.896Z,11.23
2023-03-03T14:24:55.887Z,11.24
2023-03-03T14:25:55.834Z,11.24
2023-03-03T14:26:56.116Z,11.21
2023-03-03T14:27:55.837Z,11.17
2023-03-03T14:28:55.857Z,11.17
2023-03-03T14:29:55.860Z,11.18
2023-03-03T14:30:55.971Z,11.18
2023-03-03T14:31:55.838Z,11.13
2023-03-03T14:32:55.853Z,11.08
2023-03-03T14:33:55.883Z,11.04
2023-03-03T14:34:55.899Z,10.90
2023-03-03T14:35:55.854Z,10.83
2023-03-03T14:36:55.871Z,10.69
2023-03-03T14:37:55.801Z,10.69
2023-03-03T14:38:55.856Z,10.70
2023-03-03T14:39:55.814Z,10.45
2023-03-03T14:40:55.859Z,10.41
2023-03-03T14:41:56.137Z,10.37
2023-03-03T14:42:55.862Z,10.29
2023-03-03T14:43:55.786Z,10.29
2023-03-03T14:44:55.929Z,10.25
2023-03-03T14:45:55.916Z,10.21
2023-03-03T14:46:55.824Z,10.26
2023-03-03T14:47:55.870Z,10.23
2023-03-03T14:48:56.021Z,10.14
2023-03-03T14:49:55.883Z,10.17
2023-03-03T14:50:55.925Z,10.15
2023-03-03T14:51:55.834Z,10.09
2023-03-03T14:52:55.944Z,10.03
2023-03-03T14:53:55.840Z,9.98
2023-03-03T14:54:55.929Z,9.98
2023-03-03T14:55:55.857Z,9.97
2023-03-03T14:56:55.885Z,9.93
2023-03-03T14:57:55.882Z,9.94
2023-03-03T14:58:55.846Z,9.97
2023-03-03T14:59:55.916Z,9.97
2023-03-03T15:00:55.910Z,9.92
2023-03-03T15:01:55.917Z,9.89
2023-03-03T15:02:56.024Z,9.94
2023-03-03T15:03:55.991Z,9.93
2023-03-03T15:04:56.080Z,9.90
2023-03-03T15:05:56.006Z,9.89
2023-03-03T15:06:55.975Z,9.86
2023-03-03T15:07:56.217Z,9.75
2023-03-03T15:08:56.135Z,9.77
2023-03-03T15:09:56.125Z,9.79
2023-03-03T15:10:56.110Z,9.69
2023-03-03T15:11:56.250Z,9.73
2023-03-03T15:12:56.196Z,9.70
2023-03-03T15:13:56.153Z,9.68
2023-03-03T15:14:56.265Z,9.65
2023-03-03T15:15:56.384Z,9.74
2023-03-03T15:16:56.369Z,9.66
2023-03-03T15:17:56.372Z,9.56
2023-03-03T15:18:56.331Z,9.55
2023-03-03T15:19:56.348Z,9.47
2023-03-03T15:20:56.381Z,9.47
2023-03-03T15:21:56.410Z,9.46
2023-03-03T15:22:56.431Z,9.46
2023-03-03T15:23:56.434Z,9.45
2023-03-03T15:24:56.557Z,9.47
2023-03-03T15:25:58.714Z,9.30
2023-03-03T15:26:56.661Z,9.23
2023-03-03T15:27:56.657Z,9.37
2023-03-03T15:28:56.688Z,9.30
2023-03-03T15:29:56.740Z,9.35
2023-03-03T15:30:56.794Z,9.33
2023-03-03T15:31:56.798Z,9.27
2023-03-03T15:32:56.890Z,9.22
2023-03-03T15:33:56.769Z,9.26
2023-03-03T15:34:56.807Z,9.25
2023-03-03T15:35:56.840Z,9.23
2023-03-03T15:36:57.456Z,9.18
2023-03-03T15:37:56.808Z,9.14
2023-03-03T15:38:56.936Z,9.15
2023-03-03T15:39:56.930Z,9.11
2023-03-03T15:40:56.910Z,9.12
2023-03-03T15:41:56.969Z,9.05
2023-03-03T15:42:56.908Z,9.03
2023-03-03T15:43:57.043Z,8.93
2023-03-03T15:44:57.144Z,8.95
2023-03-03T15:45:57.192Z,8.94
2023-03-03T15:46:57.104Z,8.85
2023-03-03T15:47:57.131Z,8.79
2023-03-03T15:48:57.190Z,8.80
2023-03-03T15:49:57.137Z,8.79
2023-03-03T15:50:57.261Z,8.75
2023-03-03T15:52:03.403Z,8.72
2023-03-03T15:52:57.292Z,8.71
2023-03-03T15:53:57.282Z,8.70
2023-03-03T15:54:57.283Z,8.68
2023-03-03T15:55:57.325Z,8.72
2023-03-03T15:56:58.348Z,8.70
2023-03-03T15:57:57.316Z,8.63
2023-03-03T15:58:57.315Z,8.94
2023-03-03T15:59:57.309Z,8.65
2023-03-03T16:00:57.216Z,8.60
2023-03-03T16:01:57.747Z,8.59
2023-03-03T16:02:58.909Z,8.57
2023-03-03T16:03:57.308Z,8.58
2023-03-03T16:04:57.312Z,8.59
2023-03-03T16:05:57.304Z,8.56
2023-03-03T16:06:57.359Z,8.46
2023-03-03T16:07:57.397Z,8.41
2023-03-03T16:08:57.310Z,8.41
2023-03-03T16:09:57.390Z,8.36
2023-03-03T16:10:57.456Z,8.37
2023-03-03T16:11:57.913Z,8.39
2023-03-03T16:12:57.389Z,8.37
2023-03-03T16:13:57.517Z,8.19
2023-03-03T16:14:57.549Z,8.16
2023-03-03T16:15:57.616Z,8.16
2023-03-03T16:16:57.530Z,8.13
2023-03-03T16:17:57.606Z,8.12
2023-03-03T16:18:58.549Z,8.09
2023-03-03T16:19:57.579Z,8.03
2023-03-03T16:20:57.686Z,7.96
2023-03-03T16:21:57.853Z,7.85
2023-03-03T16:22:57.607Z,7.86
2023-03-03T16:23:57.721Z,7.80
2023-03-03T16:24:57.899Z,7.77
2023-03-03T16:25:57.824Z,7.72
2023-03-03T16:26:57.871Z,7.67
2023-03-03T16:27:57.898Z,7.62
2023-03-03T16:28:58.013Z,7.52
2023-03-03T16:29:57.824Z,7.41
2023-03-03T16:30:57.932Z,7.47
2023-03-03T16:31:58.056Z,7.27
2023-03-03T16:32:57.992Z,7.18
2023-03-03T16:33:58.046Z,7.13
2023-03-03T16:34:58.052Z,7.12
2023-03-03T16:35:58.021Z,7.07
2023-03-03T16:36:58.127Z,7.04
2023-03-03T16:37:58.095Z,7.01
2023-03-03T16:38:58.079Z,6.96
2023-03-03T16:39:58.158Z,6.90
2023-03-03T16:40:58.285Z,6.81
2023-03-03T16:41:58.309Z,6.77
2023-03-03T16:42:58.227Z,6.72
2023-03-03T16:43:58.269Z,6.71
2023-03-03T16:44:58.274Z,6.63
2023-03-03T16:45:58.399Z,6.59
2023-03-03T16:46:58.361Z,6.56
2023-03-03T16:47:58.461Z,6.53
2023-03-03T16:48:58.356Z,6.51
2023-03-03T16:49:58.308Z,6.46
2023-03-03T16:50:58.417Z,6.41
2023-03-03T16:51:58.440Z,6.34
2023-03-03T16:52:58.432Z,6.31
2023-03-03T16:53:58.480Z,6.26
2023-03-03T16:54:58.547Z,6.23
2023-03-03T16:55:58.430Z,6.19
2023-03-03T16:56:58.623Z,6.11
2023-03-03T16:57:58.673Z,6.07
2023-03-03T16:58:58.758Z,5.99
2023-03-03T16:59:58.682Z,5.96
2023-03-03T17:00:58.670Z,5.93
2023-03-03T17:01:58.682Z,5.88
2023-03-03T17:02:58.707Z,5.81
2023-03-03T17:03:58.733Z,5.80
2023-03-03T17:04:58.925Z,5.76
2023-03-03T17:05:58.760Z,5.71
2023-03-03T17:06:58.855Z,5.64
2023-03-03T17:07:58.786Z,5.63
2023-03-03T17:08:58.815Z,5.60
2023-03-03T17:09:58.816Z,5.55
2023-03-03T17:10:58.907Z,5.48
2023-03-03T17:11:58.934Z,5.45
2023-03-03T17:12:58.962Z,5.38
2023-03-03T17:13:59.069Z,5.28
2023-03-03T17:14:58.962Z,5.23
2023-03-03T17:15:58.971Z,5.20
2023-03-03T17:17:01.363Z,5.19
2023-03-03T17:17:59.080Z,5.09
2023-03-03T17:18:59.508Z,5.05
2023-03-03T17:19:59.157Z,5.03
2023-03-03T17:20:59.201Z,5.00
2023-03-03T17:21:59.285Z,4.99
2023-03-03T17:22:59.187Z,4.96
2023-03-03T17:23:59.224Z,4.91
2023-03-03T17:24:59.230Z,4.85
2023-03-03T17:25:59.315Z,4.82
2023-03-03T17:26:59.516Z,4.78
2023-03-03T17:27:59.365Z,4.63
2023-03-03T17:28:59.424Z,4.57
2023-03-03T17:29:59.400Z,4.57
2023-03-03T17:30:59.441Z,4.55
2023-03-03T17:31:59.682Z,4.49
2023-03-03T17:32:59.494Z,4.42
2023-03-03T17:33:59.466Z,4.35
2023-03-03T17:34:59.534Z,4.28
2023-03-03T17:35:59.598Z,4.33
2023-03-03T17:36:59.615Z,4.33
2023-03-03T17:37:59.641Z,4.30
2023-03-03T17:38:59.604Z,4.29
2023-03-03T17:40:01.856Z,4.30
2023-03-03T17:40:59.688Z,4.28
2023-03-03T17:42:00.234Z,4.28
2023-03-03T17:42:59.750Z,4.26
2023-03-03T17:44:01.428Z,4.19
2023-03-03T17:44:59.766Z,4.05
2023-03-03T17:45:59.858Z,4.08
2023-03-03T17:47:03.486Z,4.08
2023-03-03T17:48:02.836Z,4.09
2023-03-03T17:48:59.789Z,4.02
2023-03-03T17:49:59.900Z,4.02
2023-03-03T17:50:59.864Z,4.01
2023-03-03T17:51:59.829Z,3.95
2023-03-03T17:52:59.849Z,3.91
2023-03-03T17:53:59.909Z,3.89
2023-03-03T17:54:59.762Z,3.88
2023-03-03T17:56:21.583Z,3.85
2023-03-03T17:57:00.106Z,3.80
2023-03-03T17:58:05.796Z,3.81
2023-03-03T17:58:59.904Z,3.81
2023-03-03T18:00:08.864Z,3.78
2023-03-03T18:01:18.194Z,3.75
2023-03-03T18:01:59.962Z,3.74
2023-03-03T18:03:00.223Z,3.73
2023-03-03T18:04:00.093Z,3.69
2023-03-03T18:04:59.900Z,3.68
2023-03-03T18:05:59.904Z,3.65
2023-03-03T18:07:03.317Z,3.64
2023-03-03T18:08:00.025Z,3.63
2023-03-03T18:09:13.244Z,3.62
2023-03-03T18:09:59.937Z,3.58
2023-03-03T18:10:59.939Z,3.57
2023-03-03T18:11:59.881Z,3.54
2023-03-03T18:13:00.023Z,3.52
2023-03-03T18:14:02.008Z,3.52
2023-03-03T18:14:59.988Z,3.48
2023-03-03T18:16:11.073Z,3.45
2023-03-03T18:17:08.673Z,3.45
2023-03-03T18:18:01.666Z,3.43
2023-03-03T18:18:59.967Z,3.42
2023-03-03T18:20:01.949Z,3.39
2023-03-03T18:20:59.922Z,3.38
2023-03-03T18:22:03.473Z,3.36
2023-03-03T18:23:02.412Z,3.34
2023-03-03T18:24:03.143Z,3.30
2023-03-03T18:25:02.728Z,3.17
2023-03-03T18:26:00.105Z,3.13
2023-03-03T18:27:00.062Z,3.09
2023-03-03T18:28:00.122Z,3.07
2023-03-03T18:29:09.221Z,3.06
2023-03-03T18:30:00.217Z,3.03
2023-03-03T18:31:00.132Z,2.99
2023-03-03T18:32:00.165Z,2.97
2023-03-03T18:33:00.049Z,2.95
2023-03-03T18:34:00.021Z,2.95
2023-03-03T18:35:02.104Z,2.97
2023-03-03T18:36:00.227Z,3.01
2023-03-03T18:37:00.128Z,3.08
2023-03-03T18:38:00.140Z,3.00
2023-03-03T18:39:00.032Z,2.96
2023-03-03T18:40:00.153Z,2.96
2023-03-03T18:40:59.997Z,2.93
2023-03-03T18:42:00.016Z,2.94
2023-03-03T18:43:00.130Z,2.92
2023-03-03T18:44:00.058Z,2.85
2023-03-03T18:45:00.136Z,2.77
2023-03-03T18:46:00.053Z,2.74
2023-03-03T18:47:00.114Z,2.84
2023-03-03T18:48:00.015Z,2.84
2023-03-03T18:49:00.111Z,2.91
2023-03-03T18:50:00.107Z,2.78
2023-03-03T18:51:00.331Z,2.76
2023-03-03T18:52:00.515Z,2.74
2023-03-03T18:53:00.199Z,2.73
2023-03-03T18:54:00.211Z,2.78
2023-03-03T18:55:00.245Z,2.90
2023-03-03T18:56:00.257Z,2.86
2023-03-03T18:57:00.427Z,2.80
2023-03-03T18:58:00.266Z,2.89
2023-03-03T18:59:00.262Z,2.89
2023-03-03T19:00:00.392Z,2.73
2023-03-03T19:01:00.424Z,2.70
2023-03-03T19:02:00.350Z,2.64
2023-03-03T19:03:00.450Z,2.67
2023-03-03T19:04:02.393Z,2.59
2023-03-03T19:05:00.547Z,2.66
2023-03-03T19:06:00.499Z,2.63
2023-03-03T19:07:00.582Z,2.66
2023-03-03T19:08:00.597Z,2.56
2023-03-03T19:09:02.937Z,2.69
2023-03-03T19:10:00.707Z,2.71
2023-03-03T19:11:00.753Z,2.70
2023-03-03T19:12:00.664Z,2.73
2023-03-03T19:13:00.673Z,2.73
2023-03-03T19:14:00.576Z,2.75
2023-03-03T19:15:00.679Z,2.74
2023-03-03T19:16:00.865Z,2.76
2023-03-03T19:17:00.673Z,2.78
2023-03-03T19:18:00.830Z,2.77
2023-03-03T19:19:00.841Z,2.68
2023-03-03T19:20:00.879Z,2.67
2023-03-03T19:21:00.884Z,2.64
2023-03-03T19:22:00.906Z,2.60
2023-03-03T19:23:00.862Z,2.62
2023-03-03T19:24:01.094Z,2.63
2023-03-03T19:25:00.949Z,2.63
2023-03-03T19:26:00.965Z,2.69
2023-03-03T19:27:01.063Z,2.75
2023-03-03T19:28:01.014Z,2.74
2023-03-03T19:29:01.088Z,2.86
2023-03-03T19:30:01.099Z,2.79
2023-03-03T19:31:01.167Z,2.76
2023-03-03T19:32:01.100Z,2.85
2023-03-03T19:33:01.181Z,2.90
2023-03-03T19:34:01.230Z,3.01
2023-03-03T19:35:01.181Z,3.10
2023-03-03T19:36:01.283Z,3.15
2023-03-03T19:37:01.570Z,3.15
2023-03-03T19:38:01.344Z,3.27
2023-03-03T19:39:01.403Z,3.28
2023-03-03T19:40:01.397Z,3.30
2023-03-03T19:41:01.692Z,3.26
2023-03-03T19:42:01.416Z,3.28
2023-03-03T19:43:01.297Z,3.32
2023-03-03T19:44:01.392Z,3.33
2023-03-03T19:45:01.556Z,3.33
